Okmulgee, OK (74447)

3:32 PM CDT on August 26, 2016 (GMT -0500)
Brown Edition | | Change Station

Elev 755 ft 35.44 °N, 95.99 °W | Updated 17 seconds ago

Partly Cloudy
Partly Cloudy
85.1 °F
Feels Like 93 °F
N
3.4
Wind Variable Wind from SSW
Gusts 4.9 mph

Today
High -- | Low -- °F
--% Chance of Precip.
Yesterday
High -- | Low -- °F
Precip. -- in
Pressure 30.01 in
Visibility 10.0 miles
Clouds Few 3600 ft
Heat Index 93 °F
Dew Point 74 °F
Humidity 70%
Rainfall 0.00 in
Snow Depth Not available.
6:51 AM 7:58 PM
Waning Crescent, 31% visible
METAR KRVS 261953Z 12012KT 10SM FEW036 30/24 A3000 RMK AO2 SLP162 T03000239
Pressure 30.01 in
Visibility 10.0 miles
Clouds Few 3600 ft
Heat Index 93 °F
Dew Point 74 °F
Humidity 70%
Rainfall 0.00 in
Snow Depth Not available.
6:51 AM 7:58 PM
Waning Crescent, 31% visible
METAR KRVS 261953Z 12012KT 10SM FEW036 30/24 A3000 RMK AO2 SLP162 T03000239

10-Day Weather Forecast

Almanac

Astronomy

Aug. 26, 2016 Rise Set
Actual Time
Civil Twilight
Nautical Twilight
Astronomical Twilight
Moon
Length of Visible Light
Length of Day
Tomorrow will be .
, % of the Moon is Illuminated

Today's Extremes

State Highs State Lows

Community

WunderPhotos

Upload Photos

1,935,203 photos uploaded!

WunderBlog® & News

Nearby

Air Quality

  Air Quality AQ Index Pollutant
Not available.

Snow Depth

Station Depth Elevation

Earthquake Activity

City Distance Mag. Time & Date
Minimum magnitude displayed is 2.5.

Coastal Water Temperatures

Place Temperature

Stations

Nearby Weather Stations

Station Location Temp. Windchill Dew Point Humidity Wind Precip. Elev Updated Type
                   

Watches & Warnings

There are currently no watches in effect.